sensor_id;sensor_type;location;lat;lon;timestamp;P1;durP1;ratioP1;P2;durP2;ratioP2
33206;SDS011;19565;46.602;11.534;2023-02-05T00:01:47;18.40;;;17.50;;
33206;SDS011;19565;46.602;11.534;2023-02-05T00:04:15;18.20;;;17.30;;
33206;SDS011;19565;46.602;11.534;2023-02-05T00:06:43;19.00;;;18.00;;
33206;SDS011;19565;46.602;11.534;2023-02-05T00:09:11;19.10;;;18.20;;
33206;SDS011;19565;46.602;11.534;2023-02-05T00:11:40;18.70;;;17.80;;
33206;SDS011;19565;46.602;11.534;2023-02-05T00:14:08;18.60;;;17.70;;
33206;SDS011;19565;46.602;11.534;2023-02-05T00:16:36;18.50;;;17.60;;
33206;SDS011;19565;46.602;11.534;2023-02-05T00:19:05;18.70;;;17.80;;
33206;SDS011;19565;46.602;11.534;2023-02-05T00:21:33;18.03;;;17.13;;
33206;SDS011;19565;46.602;11.534;2023-02-05T00:24:01;18.70;;;17.80;;
33206;SDS011;19565;46.602;11.534;2023-02-05T00:26:29;18.70;;;17.80;;
33206;SDS011;19565;46.602;11.534;2023-02-05T00:28:58;18.70;;;17.80;;
33206;SDS011;19565;46.602;11.534;2023-02-05T00:31:26;18.40;;;17.50;;
33206;SDS011;19565;46.602;11.534;2023-02-05T00:33:55;18.60;;;17.70;;
33206;SDS011;19565;46.602;11.534;2023-02-05T00:36:23;18.40;;;17.50;;
33206;SDS011;19565;46.602;11.534;2023-02-05T00:38:52;18.60;;;17.70;;
33206;SDS011;19565;46.602;11.534;2023-02-05T00:41:20;18.60;;;17.70;;
33206;SDS011;19565;46.602;11.534;2023-02-05T00:43:48;18.90;;;18.00;;
33206;SDS011;19565;46.602;11.534;2023-02-05T00:46:18;19.00;;;18.10;;
33206;SDS011;19565;46.602;11.534;2023-02-05T00:48:46;18.63;;;17.73;;
33206;SDS011;19565;46.602;11.534;2023-02-05T00:51:14;18.60;;;17.70;;
33206;SDS011;19565;46.602;11.534;2023-02-05T00:53:42;19.10;;;18.20;;
33206;SDS011;19565;46.602;11.534;2023-02-05T00:56:10;19.03;;;18.13;;
33206;SDS011;19565;46.602;11.534;2023-02-05T00:58:38;19.77;;;18.77;;
33206;SDS011;19565;46.602;11.534;2023-02-05T01:01:06;18.73;;;17.83;;
33206;SDS011;19565;46.602;11.534;2023-02-05T01:03:36;19.17;;;18.27;;
33206;SDS011;19565;46.602;11.534;2023-02-05T01:06:06;17.97;;;17.07;;
33206;SDS011;19565;46.602;11.534;2023-02-05T01:08:34;18.10;;;17.20;;
33206;SDS011;19565;46.602;11.534;2023-02-05T01:11:05;18.40;;;17.50;;
33206;SDS011;19565;46.602;11.534;2023-02-05T01:13:34;18.33;;;17.43;;
33206;SDS011;19565;46.602;11.534;2023-02-05T01:16:02;18.30;;;17.40;;
33206;SDS011;19565;46.602;11.534;2023-02-05T01:18:31;18.50;;;17.60;;
33206;SDS011;19565;46.602;11.534;2023-02-05T01:21:01;19.47;;;18.57;;
33206;SDS011;19565;46.602;11.534;2023-02-05T01:23:29;40.40;;;38.70;;
33206;SDS011;19565;46.602;11.534;2023-02-05T01:25:57;42.63;;;40.83;;
33206;SDS011;19565;46.602;11.534;2023-02-05T01:28:25;41.63;;;39.83;;
33206;SDS011;19565;46.602;11.534;2023-02-05T01:30:53;42.03;;;40.23;;
33206;SDS011;19565;46.602;11.534;2023-02-05T01:33:21;42.77;;;40.97;;
33206;SDS011;19565;46.602;11.534;2023-02-05T01:35:51;41.40;;;39.60;;
33206;SDS011;19565;46.602;11.534;2023-02-05T01:38:21;42.07;;;40.27;;
33206;SDS011;19565;46.602;11.534;2023-02-05T01:40:49;39.20;;;37.50;;
33206;SDS011;19565;46.602;11.534;2023-02-05T01:43:17;40.00;;;38.30;;
33206;SDS011;19565;46.602;11.534;2023-02-05T01:45:46;40.47;;;38.77;;
33206;SDS011;19565;46.602;11.534;2023-02-05T01:48:22;41.40;;;39.60;;
33206;SDS011;19565;46.602;11.534;2023-02-05T01:50:54;18.07;;;17.17;;
33206;SDS011;19565;46.602;11.534;2023-02-05T01:53:27;18.27;;;17.37;;
33206;SDS011;19565;46.602;11.534;2023-02-05T01:55:59;18.30;;;17.40;;
33206;SDS011;19565;46.602;11.534;2023-02-05T01:58:31;18.07;;;17.17;;
33206;SDS011;19565;46.602;11.534;2023-02-05T02:01:02;18.60;;;17.70;;
33206;SDS011;19565;46.602;11.534;2023-02-05T02:03:30;19.07;;;18.17;;
33206;SDS011;19565;46.602;11.534;2023-02-05T02:05:58;19.50;;;18.60;;
33206;SDS011;19565;46.602;11.534;2023-02-05T02:08:29;18.97;;;18.07;;
33206;SDS011;19565;46.602;11.534;2023-02-05T02:10:58;19.10;;;18.20;;
33206;SDS011;19565;46.602;11.534;2023-02-05T02:13:29;19.10;;;18.10;;
33206;SDS011;19565;46.602;11.534;2023-02-05T02:15:58;18.90;;;18.00;;
33206;SDS011;19565;46.602;11.534;2023-02-05T02:18:28;18.83;;;17.93;;
33206;SDS011;19565;46.602;11.534;2023-02-05T02:21:03;18.50;;;17.60;;
33206;SDS011;19565;46.602;11.534;2023-02-05T02:27:12;19.70;;;18.70;;
33206;SDS011;19565;46.602;11.534;2023-02-05T02:29:50;20.23;;;19.00;;
33206;SDS011;19565;46.602;11.534;2023-02-05T02:32:23;19.10;;;18.20;;
33206;SDS011;19565;46.602;11.534;2023-02-05T02:35:02;19.53;;;18.63;;
33206;SDS011;19565;46.602;11.534;2023-02-05T02:37:35;19.70;;;18.80;;
33206;SDS011;19565;46.602;11.534;2023-02-05T02:40:09;18.80;;;17.90;;
33206;SDS011;19565;46.602;11.534;2023-02-05T02:42:44;18.10;;;17.20;;
33206;SDS011;19565;46.602;11.534;2023-02-05T02:45:15;40.33;;;38.63;;
33206;SDS011;19565;46.602;11.534;2023-02-05T02:47:49;41.83;;;40.03;;
33206;SDS011;19565;46.602;11.534;2023-02-05T02:50:22;41.17;;;39.37;;
33206;SDS011;19565;46.602;11.534;2023-02-05T02:52:58;40.93;;;39.13;;
33206;SDS011;19565;46.602;11.534;2023-02-05T02:55:30;40.63;;;38.83;;
33206;SDS011;19565;46.602;11.534;2023-02-05T02:58:04;42.10;;;40.20;;
33206;SDS011;19565;46.602;11.534;2023-02-05T03:00:36;41.37;;;39.57;;
33206;SDS011;19565;46.602;11.534;2023-02-05T03:03:07;41.50;;;39.70;;
33206;SDS011;19565;46.602;11.534;2023-02-05T03:05:38;40.60;;;38.80;;
33206;SDS011;19565;46.602;11.534;2023-02-05T03:08:09;41.63;;;39.83;;
33206;SDS011;19565;46.602;11.534;2023-02-05T03:10:43;40.90;;;39.10;;
33206;SDS011;19565;46.602;11.534;2023-02-05T03:13:15;42.10;;;40.30;;
33206;SDS011;19565;46.602;11.534;2023-02-05T03:15:46;40.73;;;38.93;;
33206;SDS011;19565;46.602;11.534;2023-02-05T03:18:14;42.00;;;40.10;;
33206;SDS011;19565;46.602;11.534;2023-02-05T03:20:45;41.33;;;39.53;;
33206;SDS011;19565;46.602;11.534;2023-02-05T03:23:17;41.00;;;39.20;;
33206;SDS011;19565;46.602;11.534;2023-02-05T03:25:45;41.23;;;39.43;;
33206;SDS011;19565;46.602;11.534;2023-02-05T03:28:13;41.27;;;39.47;;
33206;SDS011;19565;46.602;11.534;2023-02-05T03:30:45;41.57;;;39.77;;
33206;SDS011;19565;46.602;11.534;2023-02-05T03:33:26;40.03;;;38.33;;
33206;SDS011;19565;46.602;11.534;2023-02-05T03:36:08;41.70;;;39.90;;
33206;SDS011;19565;46.602;11.534;2023-02-05T03:38:47;42.80;;;41.00;;
33206;SDS011;19565;46.602;11.534;2023-02-05T03:41:28;43.17;;;41.33;;
33206;SDS011;19565;46.602;11.534;2023-02-05T03:44:22;41.97;;;40.17;;
33206;SDS011;19565;46.602;11.534;2023-02-05T03:46:58;42.70;;;40.83;;
33206;SDS011;19565;46.602;11.534;2023-02-05T03:49:32;41.23;;;39.43;;
33206;SDS011;19565;46.602;11.534;2023-02-05T03:52:10;42.23;;;40.43;;
33206;SDS011;19565;46.602;11.534;2023-02-05T03:54:43;39.97;;;38.27;;
33206;SDS011;19565;46.602;11.534;2023-02-05T03:57:17;42.30;;;40.50;;
33206;SDS011;19565;46.602;11.534;2023-02-05T03:59:49;41.90;;;40.00;;
33206;SDS011;19565;46.602;11.534;2023-02-05T04:02:18;41.53;;;39.73;;
33206;SDS011;19565;46.602;11.534;2023-02-05T04:04:48;40.87;;;39.07;;
33206;SDS011;19565;46.602;11.534;2023-02-05T04:07:16;40.43;;;38.63;;
33206;SDS011;19565;46.602;11.534;2023-02-05T04:09:44;41.03;;;39.23;;
33206;SDS011;19565;46.602;11.534;2023-02-05T04:12:12;40.50;;;38.70;;
33206;SDS011;19565;46.602;11.534;2023-02-05T04:14:40;40.10;;;38.40;;
33206;SDS011;19565;46.602;11.534;2023-02-05T04:17:09;40.80;;;39.00;;
33206;SDS011;19565;46.602;11.534;2023-02-05T04:19:39;40.37;;;38.60;;
33206;SDS011;19565;46.602;11.534;2023-02-05T04:22:07;38.93;;;37.23;;
33206;SDS011;19565;46.602;11.534;2023-02-05T04:24:35;39.37;;;37.67;;
33206;SDS011;19565;46.602;11.534;2023-02-05T04:27:03;39.33;;;37.63;;
33206;SDS011;19565;46.602;11.534;2023-02-05T04:29:32;38.43;;;36.73;;
33206;SDS011;19565;46.602;11.534;2023-02-05T04:32:00;39.03;;;37.33;;
33206;SDS011;19565;46.602;11.534;2023-02-05T04:34:28;40.57;;;38.83;;
33206;SDS011;19565;46.602;11.534;2023-02-05T04:36:57;39.67;;;37.97;;
33206;SDS011;19565;46.602;11.534;2023-02-05T04:39:25;39.83;;;38.13;;
33206;SDS011;19565;46.602;11.534;2023-02-05T04:41:55;40.50;;;38.77;;
33206;SDS011;19565;46.602;11.534;2023-02-05T04:44:23;40.97;;;39.27;;
33206;SDS011;19565;46.602;11.534;2023-02-05T04:46:51;40.73;;;38.93;;
33206;SDS011;19565;46.602;11.534;2023-02-05T04:49:19;42.27;;;40.47;;
33206;SDS011;19565;46.602;11.534;2023-02-05T04:51:48;42.77;;;40.97;;
33206;SDS011;19565;46.602;11.534;2023-02-05T04:54:17;69.07;;;65.50;;
33206;SDS011;19565;46.602;11.534;2023-02-05T04:56:45;19.37;;;18.47;;
33206;SDS011;19565;46.602;11.534;2023-02-05T04:59:13;19.77;;;18.87;;
33206;SDS011;19565;46.602;11.534;2023-02-05T05:01:41;20.20;;;19.20;;
33206;SDS011;19565;46.602;11.534;2023-02-05T05:04:09;19.67;;;18.67;;
33206;SDS011;19565;46.602;11.534;2023-02-05T05:06:37;19.23;;;18.33;;
33206;SDS011;19565;46.602;11.534;2023-02-05T05:09:05;18.87;;;17.97;;
33206;SDS011;19565;46.602;11.534;2023-02-05T05:11:35;18.90;;;18.00;;
33206;SDS011;19565;46.602;11.534;2023-02-05T05:14:03;18.77;;;17.87;;
33206;SDS011;19565;46.602;11.534;2023-02-05T05:16:31;18.60;;;17.70;;
33206;SDS011;19565;46.602;11.534;2023-02-05T05:18:59;19.70;;;18.50;;
33206;SDS011;19565;46.602;11.534;2023-02-05T05:21:27;21.47;;;18.60;;
33206;SDS011;19565;46.602;11.534;2023-02-05T05:23:55;37.90;;;36.30;;
33206;SDS011;19565;46.602;11.534;2023-02-05T05:26:23;39.67;;;37.97;;
33206;SDS011;19565;46.602;11.534;2023-02-05T05:28:53;39.87;;;38.17;;
33206;SDS011;19565;46.602;11.534;2023-02-05T05:31:22;40.77;;;38.97;;
33206;SDS011;19565;46.602;11.534;2023-02-05T05:33:50;39.57;;;37.87;;
33206;SDS011;19565;46.602;11.534;2023-02-05T05:36:19;39.93;;;38.23;;
33206;SDS011;19565;46.602;11.534;2023-02-05T05:38:47;40.03;;;38.33;;
33206;SDS011;19565;46.602;11.534;2023-02-05T05:41:16;39.20;;;37.50;;
33206;SDS011;19565;46.602;11.534;2023-02-05T05:44:04;40.17;;;38.47;;
33206;SDS011;19565;46.602;11.534;2023-02-05T05:46:33;40.83;;;39.03;;
33206;SDS011;19565;46.602;11.534;2023-02-05T05:49:01;41.07;;;39.27;;
33206;SDS011;19565;46.602;11.534;2023-02-05T05:51:30;41.60;;;39.77;;
33206;SDS011;19565;46.602;11.534;2023-02-05T05:53:58;41.03;;;39.23;;
33206;SDS011;19565;46.602;11.534;2023-02-05T05:56:26;38.97;;;37.27;;
33206;SDS011;19565;46.602;11.534;2023-02-05T05:58:54;41.60;;;39.80;;
33206;SDS011;19565;46.602;11.534;2023-02-05T06:01:24;41.57;;;39.77;;
33206;SDS011;19565;46.602;11.534;2023-02-05T06:03:52;42.53;;;40.53;;
33206;SDS011;19565;46.602;11.534;2023-02-05T06:06:20;43.60;;;41.70;;
33206;SDS011;19565;46.602;11.534;2023-02-05T06:08:48;39.23;;;37.53;;
33206;SDS011;19565;46.602;11.534;2023-02-05T06:11:16;38.83;;;37.13;;
33206;SDS011;19565;46.602;11.534;2023-02-05T06:13:44;39.87;;;38.17;;
33206;SDS011;19565;46.602;11.534;2023-02-05T06:16:12;39.67;;;37.97;;
33206;SDS011;19565;46.602;11.534;2023-02-05T06:18:42;40.00;;;38.20;;
33206;SDS011;19565;46.602;11.534;2023-02-05T06:21:10;39.70;;;37.87;;
33206;SDS011;19565;46.602;11.534;2023-02-05T06:23:38;39.37;;;37.67;;
33206;SDS011;19565;46.602;11.534;2023-02-05T06:26:06;39.23;;;37.53;;
33206;SDS011;19565;46.602;11.534;2023-02-05T06:28:34;40.57;;;38.77;;
33206;SDS011;19565;46.602;11.534;2023-02-05T06:31:02;38.97;;;37.27;;
33206;SDS011;19565;46.602;11.534;2023-02-05T06:33:31;39.97;;;38.27;;
33206;SDS011;19565;46.602;11.534;2023-02-05T06:36:00;39.77;;;38.07;;
33206;SDS011;19565;46.602;11.534;2023-02-05T06:38:28;40.33;;;38.63;;
33206;SDS011;19565;46.602;11.534;2023-02-05T06:40:56;40.53;;;38.83;;
33206;SDS011;19565;46.602;11.534;2023-02-05T06:43:24;19.80;;;18.80;;
33206;SDS011;19565;46.602;11.534;2023-02-05T06:45:52;19.17;;;18.27;;
33206;SDS011;19565;46.602;11.534;2023-02-05T06:48:20;18.63;;;17.73;;
33206;SDS011;19565;46.602;11.534;2023-02-05T06:50:48;18.27;;;17.37;;
33206;SDS011;19565;46.602;11.534;2023-02-05T06:53:18;18.17;;;17.27;;
33206;SDS011;19565;46.602;11.534;2023-02-05T06:55:46;18.17;;;17.27;;
33206;SDS011;19565;46.602;11.534;2023-02-05T06:58:14;18.53;;;17.63;;
33206;SDS011;19565;46.602;11.534;2023-02-05T07:00:42;18.00;;;17.10;;
33206;SDS011;19565;46.602;11.534;2023-02-05T07:03:10;17.83;;;16.90;;
33206;SDS011;19565;46.602;11.534;2023-02-05T07:05:38;17.43;;;16.63;;
33206;SDS011;19565;46.602;11.534;2023-02-05T07:08:06;17.60;;;16.70;;
33206;SDS011;19565;46.602;11.534;2023-02-05T07:10:35;17.90;;;17.00;;
33206;SDS011;19565;46.602;11.534;2023-02-05T07:13:03;17.33;;;16.53;;
33206;SDS011;19565;46.602;11.534;2023-02-05T07:15:31;17.20;;;16.40;;
33206;SDS011;19565;46.602;11.534;2023-02-05T07:18:02;17.70;;;16.80;;
33206;SDS011;19565;46.602;11.534;2023-02-05T07:20:30;19.47;;;18.47;;
33206;SDS011;19565;46.602;11.534;2023-02-05T07:22:58;17.30;;;16.40;;
33206;SDS011;19565;46.602;11.534;2023-02-05T07:25:27;17.67;;;16.80;;
33206;SDS011;19565;46.602;11.534;2023-02-05T07:27:59;34.13;;;32.67;;
33206;SDS011;19565;46.602;11.534;2023-02-05T07:30:27;35.17;;;33.67;;
33206;SDS011;19565;46.602;11.534;2023-02-05T07:32:55;34.97;;;33.47;;
33206;SDS011;19565;46.602;11.534;2023-02-05T07:35:25;36.33;;;34.73;;
33206;SDS011;19565;46.602;11.534;2023-02-05T07:37:53;35.13;;;33.63;;
33206;SDS011;19565;46.602;11.534;2023-02-05T07:40:21;35.80;;;34.10;;
33206;SDS011;19565;46.602;11.534;2023-02-05T07:42:49;36.13;;;34.53;;
33206;SDS011;19565;46.602;11.534;2023-02-05T07:45:19;36.47;;;34.73;;
33206;SDS011;19565;46.602;11.534;2023-02-05T07:47:49;36.03;;;34.43;;
33206;SDS011;19565;46.602;11.534;2023-02-05T07:50:19;36.40;;;34.73;;
33206;SDS011;19565;46.602;11.534;2023-02-05T07:52:47;36.17;;;34.60;;
33206;SDS011;19565;46.602;11.534;2023-02-05T07:55:15;37.13;;;35.50;;
33206;SDS011;19565;46.602;11.534;2023-02-05T07:57:43;36.20;;;34.67;;
33206;SDS011;19565;46.602;11.534;2023-02-05T08:00:13;36.07;;;34.57;;
33206;SDS011;19565;46.602;11.534;2023-02-05T08:02:43;35.47;;;33.97;;
33206;SDS011;19565;46.602;11.534;2023-02-05T08:05:11;35.27;;;33.77;;
33206;SDS011;19565;46.602;11.534;2023-02-05T08:07:39;36.70;;;35.07;;
33206;SDS011;19565;46.602;11.534;2023-02-05T08:10:08;35.57;;;34.07;;
33206;SDS011;19565;46.602;11.534;2023-02-05T08:12:39;36.87;;;35.27;;
33206;SDS011;19565;46.602;11.534;2023-02-05T08:15:07;35.97;;;34.37;;
33206;SDS011;19565;46.602;11.534;2023-02-05T08:17:36;36.73;;;35.13;;
33206;SDS011;19565;46.602;11.534;2023-02-05T08:20:06;18.50;;;17.53;;
33206;SDS011;19565;46.602;11.534;2023-02-05T08:22:35;18.57;;;17.67;;
33206;SDS011;19565;46.602;11.534;2023-02-05T08:25:04;18.50;;;17.60;;
33206;SDS011;19565;46.602;11.534;2023-02-05T08:27:34;19.67;;;18.67;;
33206;SDS011;19565;46.602;11.534;2023-02-05T08:30:04;19.10;;;18.20;;
33206;SDS011;19565;46.602;11.534;2023-02-05T08:32:33;19.60;;;18.60;;
33206;SDS011;19565;46.602;11.534;2023-02-05T08:35:01;22.07;;;20.87;;
33206;SDS011;19565;46.602;11.534;2023-02-05T08:37:31;25.83;;;24.63;;
33206;SDS011;19565;46.602;11.534;2023-02-05T08:39:59;23.57;;;22.47;;
33206;SDS011;19565;46.602;11.534;2023-02-05T08:42:27;20.37;;;19.47;;
33206;SDS011;19565;46.602;11.534;2023-02-05T08:44:55;19.60;;;18.63;;
33206;SDS011;19565;46.602;11.534;2023-02-05T08:47:24;18.80;;;17.90;;
33206;SDS011;19565;46.602;11.534;2023-02-05T08:49:53;19.40;;;18.40;;
33206;SDS011;19565;46.602;11.534;2023-02-05T08:52:21;19.70;;;18.60;;
33206;SDS011;19565;46.602;11.534;2023-02-05T08:54:51;16.37;;;15.47;;
33206;SDS011;19565;46.602;11.534;2023-02-05T08:57:19;19.63;;;18.07;;
33206;SDS011;19565;46.602;11.534;2023-02-05T08:59:47;17.13;;;16.33;;
33206;SDS011;19565;46.602;11.534;2023-02-05T09:02:15;15.93;;;15.13;;
33206;SDS011;19565;46.602;11.534;2023-02-05T09:04:43;13.70;;;13.00;;
33206;SDS011;19565;46.602;11.534;2023-02-05T09:07:11;18.17;;;17.27;;
33206;SDS011;19565;46.602;11.534;2023-02-05T09:09:39;17.10;;;16.30;;
33206;SDS011;19565;46.602;11.534;2023-02-05T09:12:08;18.60;;;17.70;;
33206;SDS011;19565;46.602;11.534;2023-02-05T09:14:37;19.93;;;18.20;;
33206;SDS011;19565;46.602;11.534;2023-02-05T09:17:06;20.80;;;19.80;;
33206;SDS011;19565;46.602;11.534;2023-02-05T09:19:36;18.30;;;17.40;;
33206;SDS011;19565;46.602;11.534;2023-02-05T09:22:05;19.10;;;18.20;;
33206;SDS011;19565;46.602;11.534;2023-02-05T09:24:36;38.23;;;36.43;;
33206;SDS011;19565;46.602;11.534;2023-02-05T09:27:04;36.77;;;35.17;;
33206;SDS011;19565;46.602;11.534;2023-02-05T09:29:33;37.93;;;36.23;;
33206;SDS011;19565;46.602;11.534;2023-02-05T09:32:01;38.23;;;36.53;;
33206;SDS011;19565;46.602;11.534;2023-02-05T09:34:30;37.83;;;36.13;;
33206;SDS011;19565;46.602;11.534;2023-02-05T09:36:58;38.43;;;36.83;;
33206;SDS011;19565;46.602;11.534;2023-02-05T09:39:26;42.90;;;41.10;;
33206;SDS011;19565;46.602;11.534;2023-02-05T09:42:19;36.80;;;35.20;;
33206;SDS011;19565;46.602;11.534;2023-02-05T09:44:59;37.13;;;35.53;;
33206;SDS011;19565;46.602;11.534;2023-02-05T09:47:40;48.00;;;46.00;;
33206;SDS011;19565;46.602;11.534;2023-02-05T09:50:17;37.77;;;36.17;;
33206;SDS011;19565;46.602;11.534;2023-02-05T09:52:51;37.17;;;35.57;;
33206;SDS011;19565;46.602;11.534;2023-02-05T09:55:26;17.10;;;16.30;;
33206;SDS011;19565;46.602;11.534;2023-02-05T09:57:58;37.03;;;35.43;;
33206;SDS011;19565;46.602;11.534;2023-02-05T10:00:33;39.80;;;38.00;;
33206;SDS011;19565;46.602;11.534;2023-02-05T10:03:09;37.50;;;35.90;;
33206;SDS011;19565;46.602;11.534;2023-02-05T10:05:52;37.97;;;36.37;;
33206;SDS011;19565;46.602;11.534;2023-02-05T10:08:33;38.93;;;37.13;;
33206;SDS011;19565;46.602;11.534;2023-02-05T10:11:08;38.87;;;37.17;;
33206;SDS011;19565;46.602;11.534;2023-02-05T10:13:45;39.40;;;37.70;;
33206;SDS011;19565;46.602;11.534;2023-02-05T10:16:39;38.77;;;37.07;;
33206;SDS011;19565;46.602;11.534;2023-02-05T10:19:36;40.17;;;38.38;;
33206;SDS011;19565;46.602;11.534;2023-02-05T10:22:27;40.07;;;38.37;;
33206;SDS011;19565;46.602;11.534;2023-02-05T10:25:11;41.93;;;40.03;;
33206;SDS011;19565;46.602;11.534;2023-02-05T10:28:04;39.03;;;37.33;;
33206;SDS011;19565;46.602;11.534;2023-02-05T10:30:39;40.27;;;38.47;;
33206;SDS011;19565;46.602;11.534;2023-02-05T10:33:16;38.23;;;36.53;;
33206;SDS011;19565;46.602;11.534;2023-02-05T10:35:46;38.60;;;36.90;;
33206;SDS011;19565;46.602;11.534;2023-02-05T10:38:23;40.63;;;38.93;;
33206;SDS011;19565;46.602;11.534;2023-02-05T10:40:53;37.57;;;35.97;;
33206;SDS011;19565;46.602;11.534;2023-02-05T10:43:27;39.20;;;37.22;;
33206;SDS011;19565;46.602;11.534;2023-02-05T10:45:59;37.90;;;36.20;;
33206;SDS011;19565;46.602;11.534;2023-02-05T10:48:38;38.70;;;36.93;;
33206;SDS011;19565;46.602;11.534;2023-02-05T10:51:10;37.97;;;36.37;;
33206;SDS011;19565;46.602;11.534;2023-02-05T10:53:41;38.63;;;36.93;;
33206;SDS011;19565;46.602;11.534;2023-02-05T10:56:13;39.47;;;37.70;;
33206;SDS011;19565;46.602;11.534;2023-02-05T10:58:44;36.97;;;35.37;;
33206;SDS011;19565;46.602;11.534;2023-02-05T11:01:19;36.90;;;35.30;;
33206;SDS011;19565;46.602;11.534;2023-02-05T11:03:54;37.00;;;35.40;;
33206;SDS011;19565;46.602;11.534;2023-02-05T11:06:27;37.03;;;35.43;;
33206;SDS011;19565;46.602;11.534;2023-02-05T11:08:58;36.40;;;34.80;;
33206;SDS011;19565;46.602;11.534;2023-02-05T11:11:27;37.20;;;35.60;;
33206;SDS011;19565;46.602;11.534;2023-02-05T11:13:58;39.80;;;37.80;;
33206;SDS011;19565;46.602;11.534;2023-02-05T11:16:33;38.73;;;37.03;;
33206;SDS011;19565;46.602;11.534;2023-02-05T11:19:11;38.47;;;36.77;;
33206;SDS011;19565;46.602;11.534;2023-02-05T11:21:46;38.57;;;36.87;;
33206;SDS011;19565;46.602;11.534;2023-02-05T11:24:27;37.30;;;35.70;;
33206;SDS011;19565;46.602;11.534;2023-02-05T11:27:09;41.07;;;39.27;;
33206;SDS011;19565;46.602;11.534;2023-02-05T11:29:52;37.23;;;35.63;;
33206;SDS011;19565;46.602;11.534;2023-02-05T11:32:20;40.60;;;38.47;;
33206;SDS011;19565;46.602;11.534;2023-02-05T11:35:08;37.67;;;36.07;;
33206;SDS011;19565;46.602;11.534;2023-02-05T11:37:47;39.87;;;38.13;;
33206;SDS011;19565;46.602;11.534;2023-02-05T11:40:22;38.97;;;37.27;;
33206;SDS011;19565;46.602;11.534;2023-02-05T11:42:56;41.37;;;39.57;;
33206;SDS011;19565;46.602;11.534;2023-02-05T11:45:31;39.73;;;38.03;;
33206;SDS011;19565;46.602;11.534;2023-02-05T11:48:01;39.07;;;37.37;;
33206;SDS011;19565;46.602;11.534;2023-02-05T11:50:33;48.13;;;46.13;;
33206;SDS011;19565;46.602;11.534;2023-02-05T11:53:06;17.97;;;17.07;;
33206;SDS011;19565;46.602;11.534;2023-02-05T11:55:41;18.20;;;17.30;;
33206;SDS011;19565;46.602;11.534;2023-02-05T11:58:18;17.77;;;16.87;;
33206;SDS011;19565;46.602;11.534;2023-02-05T12:01:02;23.87;;;22.77;;
33206;SDS011;19565;46.602;11.534;2023-02-05T12:03:32;16.80;;;15.90;;
33206;SDS011;19565;46.602;11.534;2023-02-05T12:06:10;18.77;;;17.80;;
33206;SDS011;19565;46.602;11.534;2023-02-05T12:08:46;20.50;;;19.60;;
33206;SDS011;19565;46.602;11.534;2023-02-05T12:11:19;19.47;;;18.57;;
33206;SDS011;19565;46.602;11.534;2023-02-05T12:13:56;18.10;;;17.20;;
33206;SDS011;19565;46.602;11.534;2023-02-05T12:16:35;18.87;;;17.97;;
33206;SDS011;19565;46.602;11.534;2023-02-05T12:19:15;21.63;;;20.63;;
33206;SDS011;19565;46.602;11.534;2023-02-05T12:21:48;17.93;;;17.07;;
33206;SDS011;19565;46.602;11.534;2023-02-05T12:27:18;15.40;;;14.60;;
33206;SDS011;19565;46.602;11.534;2023-02-05T12:30:03;20.83;;;19.83;;
33206;SDS011;19565;46.602;11.534;2023-02-05T12:32:43;17.90;;;17.07;;
33206;SDS011;19565;46.602;11.534;2023-02-05T12:35:23;20.30;;;19.37;;
33206;SDS011;19565;46.602;11.534;2023-02-05T12:38:06;14.37;;;13.67;;
33206;SDS011;19565;46.602;11.534;2023-02-05T12:40:50;18.63;;;17.73;;
33206;SDS011;19565;46.602;11.534;2023-02-05T12:43:30;20.43;;;19.17;;
33206;SDS011;19565;46.602;11.534;2023-02-05T12:46:16;17.73;;;16.87;;
33206;SDS011;19565;46.602;11.534;2023-02-05T12:48:59;19.27;;;18.37;;
33206;SDS011;19565;46.602;11.534;2023-02-05T12:51:45;17.47;;;16.67;;
33206;SDS011;19565;46.602;11.534;2023-02-05T12:54:32;18.67;;;17.77;;
33206;SDS011;19565;46.602;11.534;2023-02-05T12:57:14;19.23;;;18.33;;
33206;SDS011;19565;46.602;11.534;2023-02-05T12:59:47;19.77;;;18.87;;
33206;SDS011;19565;46.602;11.534;2023-02-05T13:02:21;21.67;;;20.67;;
33206;SDS011;19565;46.602;11.534;2023-02-05T13:04:58;22.00;;;21.00;;
33206;SDS011;19565;46.602;11.534;2023-02-05T13:07:35;20.90;;;19.90;;
33206;SDS011;19565;46.602;11.534;2023-02-05T13:10:11;26.67;;;25.47;;
33206;SDS011;19565;46.602;11.534;2023-02-05T13:12:44;19.47;;;18.47;;
33206;SDS011;19565;46.602;11.534;2023-02-05T13:15:18;17.77;;;16.97;;
33206;SDS011;19565;46.602;11.534;2023-02-05T13:17:51;24.07;;;22.97;;
33206;SDS011;19565;46.602;11.534;2023-02-05T13:20:24;18.67;;;17.77;;
33206;SDS011;19565;46.602;11.534;2023-02-05T13:23:09;18.67;;;17.87;;
33206;SDS011;19565;46.602;11.534;2023-02-05T13:25:57;18.63;;;17.73;;
33206;SDS011;19565;46.602;11.534;2023-02-05T13:28:45;18.33;;;17.40;;
33206;SDS011;19565;46.602;11.534;2023-02-05T13:31:26;19.93;;;18.93;;
33206;SDS011;19565;46.602;11.534;2023-02-05T13:33:59;17.87;;;17.03;;
33206;SDS011;19565;46.602;11.534;2023-02-05T13:36:43;19.03;;;18.13;;
33206;SDS011;19565;46.602;11.534;2023-02-05T13:39:43;18.70;;;17.80;;
33206;SDS011;19565;46.602;11.534;2023-02-05T13:42:38;18.87;;;17.97;;
33206;SDS011;19565;46.602;11.534;2023-02-05T13:45:25;19.00;;;18.10;;
33206;SDS011;19565;46.602;11.534;2023-02-05T13:48:18;18.60;;;17.70;;
33206;SDS011;19565;46.602;11.534;2023-02-05T13:53:55;20.73;;;19.73;;
33206;SDS011;19565;46.602;11.534;2023-02-05T13:56:52;20.50;;;19.50;;
33206;SDS011;19565;46.602;11.534;2023-02-05T13:59:33;20.07;;;19.07;;
33206;SDS011;19565;46.602;11.534;2023-02-05T14:02:17;20.00;;;19.00;;
33206;SDS011;19565;46.602;11.534;2023-02-05T14:04:55;19.73;;;18.80;;
33206;SDS011;19565;46.602;11.534;2023-02-05T14:07:24;19.17;;;18.27;;
33206;SDS011;19565;46.602;11.534;2023-02-05T14:09:55;19.83;;;18.83;;
33206;SDS011;19565;46.602;11.534;2023-02-05T14:12:26;19.33;;;18.43;;
33206;SDS011;19565;46.602;11.534;2023-02-05T14:18:02;18.87;;;17.97;;
33206;SDS011;19565;46.602;11.534;2023-02-05T14:20:31;18.57;;;17.67;;
33206;SDS011;19565;46.602;11.534;2023-02-05T14:23:11;19.30;;;18.40;;
33206;SDS011;19565;46.602;11.534;2023-02-05T14:25:44;19.20;;;18.30;;
33206;SDS011;19565;46.602;11.534;2023-02-05T14:28:35;19.10;;;18.20;;
33206;SDS011;19565;46.602;11.534;2023-02-05T14:34:27;17.80;;;16.90;;
33206;SDS011;19565;46.602;11.534;2023-02-05T14:37:24;18.73;;;17.83;;
33206;SDS011;19565;46.602;11.534;2023-02-05T14:40:10;18.80;;;17.90;;
33206;SDS011;19565;46.602;11.534;2023-02-05T14:42:54;18.60;;;17.70;;
33206;SDS011;19565;46.602;11.534;2023-02-05T14:45:36;17.73;;;16.90;;
33206;SDS011;19565;46.602;11.534;2023-02-05T14:48:16;18.20;;;17.30;;
33206;SDS011;19565;46.602;11.534;2023-02-05T14:51:00;17.40;;;16.60;;
33206;SDS011;19565;46.602;11.534;2023-02-05T14:53:30;17.70;;;16.80;;
33206;SDS011;19565;46.602;11.534;2023-02-05T14:56:00;18.83;;;17.93;;